Time;durP1;ratioP1;P1;durP2;ratioP2;P2;SDS_P1;SDS_P2;PMS_P1;PMS_P2;Temp;Humidity;BMP_temperature;BMP_pressure;BME280_temperature;BME280_humidity;BME280_pressure;Samples;Min_cycle;Max_cycle;Signal;HPM_P1;HPM_P2
2023/09/18 00:00:11;;;;;;;7.85;4.00;;;21.50;99.90;;;;;;5104654;28;20023;-84
2023/09/18 00:02:39;;;;;;;10.43;4.03;;;21.50;99.90;;;;;;5103788;28;20023;-81
2023/09/18 00:05:05;;;;;;;10.43;4.65;;;21.50;99.90;;;;;;5102266;28;20386;-84
2023/09/18 00:07:30;;;;;;;9.02;4.20;;;21.50;99.90;;;;;;5106796;28;20110;-84
2023/09/18 00:09:56;;;;;;;4.97;3.92;;;21.60;99.90;;;;;;5106275;28;20388;-84
2023/09/18 00:12:21;;;;;;;4.63;3.92;;;21.50;99.90;;;;;;5105065;28;20139;-84
2023/09/18 00:14:50;;;;;;;5.75;3.83;;;21.50;99.90;;;;;;5102471;28;20038;-85
2023/09/18 00:17:21;;;;;;;4.80;3.72;;;21.50;99.90;;;;;;5108143;28;20015;-86
2023/09/18 00:19:46;;;;;;;7.20;4.18;;;21.50;99.90;;;;;;5105424;28;20019;-84
2023/09/18 00:22:12;;;;;;;5.15;3.95;;;21.50;99.90;;;;;;5102446;28;20110;-84
2023/09/18 00:24:38;;;;;;;7.15;3.97;;;21.60;99.90;;;;;;5103803;28;20043;-86
2023/09/18 00:27:04;;;;;;;5.18;4.10;;;21.60;99.90;;;;;;5103618;28;20467;-86
2023/09/18 00:29:29;;;;;;;7.28;4.22;;;21.60;99.90;;;;;;5102612;28;20050;-84
2023/09/18 00:31:55;;;;;;;7.10;4.32;;;21.60;99.90;;;;;;5087878;28;20422;-85
2023/09/18 00:34:21;;;;;;;6.13;4.05;;;21.70;99.90;;;;;;5101121;28;20027;-85
2023/09/18 00:36:46;;;;;;;4.80;4.13;;;21.70;99.90;;;;;;5103053;28;20069;-84
2023/09/18 00:39:12;;;;;;;4.43;3.40;;;21.70;99.90;;;;;;5105479;28;20016;-83
2023/09/18 00:41:37;;;;;;;4.53;4.07;;;21.70;99.90;;;;;;5105756;28;20019;-85
2023/09/18 00:44:06;;;;;;;6.57;4.15;;;21.70;99.90;;;;;;5096521;27;20020;-84
2023/09/18 00:46:36;;;;;;;5.32;4.00;;;21.70;99.90;;;;;;5105078;28;20262;-85
2023/09/18 00:49:02;;;;;;;7.35;3.92;;;21.80;99.90;;;;;;5105558;28;20356;-85
2023/09/18 00:51:29;;;;;;;8.20;3.67;;;21.80;99.90;;;;;;5104624;28;20059;-90
2023/09/18 00:53:54;;;;;;;5.18;3.60;;;21.70;99.90;;;;;;5104575;28;20566;-84
2023/09/18 00:56:20;;;;;;;5.40;3.97;;;21.70;99.90;;;;;;5105244;28;20069;-83
2023/09/18 00:58:47;;;;;;;6.38;4.05;;;21.70;99.90;;;;;;5104250;27;20357;-85
2023/09/18 01:01:14;;;;;;;9.80;4.07;;;21.70;99.90;;;;;;5104756;28;20076;-84
2023/09/18 01:03:42;;;;;;;4.75;4.13;;;21.70;99.90;;;;;;5101580;27;20019;-86
2023/09/18 01:06:08;;;;;;;4.78;3.95;;;21.70;99.90;;;;;;5103995;27;20487;-84
2023/09/18 01:08:33;;;;;;;4.25;3.75;;;21.70;99.90;;;;;;5101885;28;20055;-84
2023/09/18 01:11:08;;;;;;;5.60;4.30;;;21.70;99.90;;;;;;5087169;28;20020;-84
2023/09/18 01:14:04;;;;;;;5.25;3.50;;;21.70;99.90;;;;;;5103019;28;20019;-84
2023/09/18 01:16:39;;;;;;;6.80;4.03;;;21.70;99.90;;;;;;5097282;28;20034;-85
2023/09/18 01:19:05;;;;;;;4.28;3.47;;;21.70;99.90;;;;;;5087944;28;20384;-84
2023/09/18 01:21:31;;;;;;;7.97;4.00;;;21.70;99.90;;;;;;5098890;28;20054;-85
2023/09/18 01:23:56;;;;;;;7.72;3.88;;;21.70;99.90;;;;;;5105643;27;20442;-85
2023/09/18 01:26:22;;;;;;;7.10;4.18;;;21.70;99.90;;;;;;5102624;27;20050;-88
2023/09/18 01:28:48;;;;;;;5.03;3.70;;;21.60;99.90;;;;;;5104960;28;20027;-83
2023/09/18 01:31:13;;;;;;;5.72;4.07;;;21.60;99.90;;;;;;5103617;27;20452;-83
2023/09/18 01:33:40;;;;;;;6.30;4.20;;;21.50;99.90;;;;;;5101915;28;20024;-82
2023/09/18 01:36:08;;;;;;;5.68;3.88;;;21.50;99.90;;;;;;5102256;28;20107;-86
2023/09/18 01:38:35;;;;;;;6.95;4.10;;;21.50;99.90;;;;;;5097655;28;21082;-83
2023/09/18 01:41:01;;;;;;;5.15;4.20;;;21.50;99.90;;;;;;5101786;28;20024;-88
2023/09/18 01:43:27;;;;;;;5.57;3.35;;;21.50;99.90;;;;;;5102066;28;20124;-86
2023/09/18 01:45:54;;;;;;;4.70;3.75;;;21.50;99.90;;;;;;5103510;28;20047;-84
2023/09/18 01:48:19;;;;;;;5.78;4.40;;;21.50;99.90;;;;;;5102343;28;20034;-85
2023/09/18 01:50:45;;;;;;;6.82;4.40;;;21.50;99.90;;;;;;5096878;28;21365;-87
2023/09/18 01:53:13;;;;;;;5.45;4.00;;;21.50;99.90;;;;;;5099894;28;20189;-88
2023/09/18 01:55:39;;;;;;;4.88;3.80;;;21.50;99.90;;;;;;5102411;28;20110;-84
2023/09/18 01:58:05;;;;;;;4.55;4.00;;;21.50;99.90;;;;;;5104503;28;20103;-84
2023/09/18 02:00:30;;;;;;;7.03;3.72;;;21.50;99.90;;;;;;5105134;28;20020;-86
2023/09/18 02:02:56;;;;;;;4.88;4.38;;;21.50;99.90;;;;;;5104980;28;20473;-85
2023/09/18 02:05:22;;;;;;;5.07;3.72;;;21.50;99.90;;;;;;5099823;28;20035;-85
2023/09/18 02:07:47;;;;;;;6.53;4.10;;;21.50;99.90;;;;;;5103476;28;20019;-85
2023/09/18 02:10:13;;;;;;;7.30;3.72;;;21.50;99.90;;;;;;5102752;28;20021;-87
2023/09/18 02:12:39;;;;;;;5.63;4.63;;;21.50;99.90;;;;;;5103445;28;20042;-84
2023/09/18 02:15:06;;;;;;;7.32;4.30;;;21.50;99.90;;;;;;5103717;28;20027;-83
2023/09/18 02:17:33;;;;;;;5.85;3.65;;;21.50;99.90;;;;;;5101917;28;20043;-87
2023/09/18 02:20:04;;;;;;;4.13;3.72;;;21.60;99.90;;;;;;5103503;28;20047;-84
2023/09/18 02:22:32;;;;;;;7.07;4.20;;;21.60;99.90;;;;;;5100915;28;20019;-86
2023/09/18 02:24:58;;;;;;;6.18;4.00;;;21.60;99.90;;;;;;5102272;27;20048;-88
2023/09/18 02:27:24;;;;;;;5.32;3.45;;;21.60;99.90;;;;;;5103556;28;20069;-85
2023/09/18 02:29:50;;;;;;;5.70;3.97;;;21.60;99.90;;;;;;5099894;28;20024;-85
2023/09/18 02:32:16;;;;;;;5.63;4.20;;;21.60;99.90;;;;;;5105667;28;20037;-85
2023/09/18 02:34:41;;;;;;;6.70;4.43;;;21.60;99.90;;;;;;5098404;28;20492;-81
2023/09/18 02:37:07;;;;;;;13.02;4.68;;;21.60;99.90;;;;;;5100639;28;20015;-85
2023/09/18 02:39:33;;;;;;;4.88;4.10;;;21.50;99.90;;;;;;5101444;28;20035;-84
2023/09/18 02:41:58;;;;;;;4.47;3.97;;;21.60;99.90;;;;;;5098760;28;20364;-84
2023/09/18 02:44:24;;;;;;;4.40;3.72;;;21.50;99.90;;;;;;5102521;28;20020;-85
2023/09/18 02:46:49;;;;;;;5.78;3.95;;;21.50;99.90;;;;;;5100445;28;20034;-85
2023/09/18 02:49:15;;;;;;;5.43;3.67;;;21.50;99.90;;;;;;5103793;28;20110;-84
2023/09/18 02:51:40;;;;;;;4.97;3.63;;;21.50;99.90;;;;;;5098927;28;20023;-85
2023/09/18 02:54:06;;;;;;;7.45;3.95;;;21.40;99.90;;;;;;5102117;28;20031;-85
2023/09/18 02:56:32;;;;;;;6.55;4.60;;;21.40;99.90;;;;;;5102078;28;20452;-85
2023/09/18 02:58:57;;;;;;;6.07;4.00;;;21.40;99.90;;;;;;5103832;27;20012;-85
2023/09/18 03:01:23;;;;;;;6.93;4.20;;;21.40;99.90;;;;;;5101740;28;20483;-85
2023/09/18 03:03:48;;;;;;;5.05;4.13;;;21.40;99.90;;;;;;5099828;28;20019;-85
2023/09/18 03:06:14;;;;;;;4.10;3.70;;;21.40;99.90;;;;;;5095413;28;20112;-86
2023/09/18 03:08:40;;;;;;;5.72;3.83;;;21.30;99.90;;;;;;5100675;28;20020;-84
2023/09/18 03:11:12;;;;;;;7.30;4.13;;;21.30;99.90;;;;;;5104836;28;20027;-86
2023/09/18 03:13:49;;;;;;;5.80;4.53;;;21.30;99.90;;;;;;5100963;28;20062;-87
2023/09/18 03:16:14;;;;;;;6.57;4.50;;;21.30;99.90;;;;;;5105208;28;20088;-87
2023/09/18 03:18:40;;;;;;;5.13;3.97;;;21.20;99.90;;;;;;5101437;27;20027;-85
2023/09/18 03:21:06;;;;;;;6.93;4.50;;;21.20;99.90;;;;;;5102201;27;20285;-86
2023/09/18 03:23:31;;;;;;;4.60;3.65;;;21.10;99.90;;;;;;5107857;28;20027;-86
2023/09/18 03:26:01;;;;;;;4.75;4.00;;;21.20;99.90;;;;;;5106665;28;20031;-85
2023/09/18 03:28:28;;;;;;;7.70;3.80;;;21.10;99.90;;;;;;5104592;28;20027;-84
2023/09/18 03:30:54;;;;;;;6.43;4.20;;;21.10;99.90;;;;;;5103511;28;20569;-85
2023/09/18 03:33:20;;;;;;;8.18;4.20;;;21.10;99.90;;;;;;5106616;27;20050;-85
2023/09/18 03:35:51;;;;;;;4.75;3.92;;;21.10;99.90;;;;;;5106291;28;20059;-88
2023/09/18 03:38:17;;;;;;;5.90;3.88;;;21.00;99.90;;;;;;5089463;28;20030;-84
2023/09/18 03:40:43;;;;;;;6.38;4.32;;;21.10;99.90;;;;;;5103437;28;20031;-86
2023/09/18 03:43:12;;;;;;;4.40;3.60;;;21.00;99.90;;;;;;5083038;28;20077;-85
2023/09/18 03:45:40;;;;;;;4.20;3.80;;;21.00;99.90;;;;;;5102153;28;20027;-86
2023/09/18 03:48:06;;;;;;;6.85;3.90;;;21.10;99.90;;;;;;5105149;28;20520;-85
2023/09/18 03:50:35;;;;;;;5.25;4.03;;;21.00;99.90;;;;;;5106111;28;20020;-88
2023/09/18 03:53:00;;;;;;;6.50;3.25;;;21.10;99.90;;;;;;5101474;27;20038;-83
2023/09/18 03:55:26;;;;;;;4.70;3.92;;;21.10;99.90;;;;;;5103485;28;20390;-87
2023/09/18 03:57:54;;;;;;;5.53;3.38;;;21.20;99.90;;;;;;5102345;27;20501;-84
2023/09/18 04:00:24;;;;;;;5.68;4.43;;;21.20;99.90;;;;;;5100145;28;20111;-85
2023/09/18 04:02:52;;;;;;;8.52;3.60;;;21.20;99.90;;;;;;5106709;28;20427;-86
2023/09/18 04:05:18;;;;;;;8.20;4.00;;;21.20;99.90;;;;;;5104859;27;20044;-83
2023/09/18 04:07:47;;;;;;;6.47;4.10;;;21.20;99.90;;;;;;5106051;28;20027;-87
2023/09/18 04:10:22;;;;;;;6.95;3.97;;;21.30;99.90;;;;;;5102766;28;20026;-88
2023/09/18 04:12:51;;;;;;;4.40;4.00;;;21.20;99.90;;;;;;5102055;27;20028;-86
2023/09/18 04:15:18;;;;;;;6.05;4.60;;;21.20;99.90;;;;;;5097931;28;20360;-84
2023/09/18 04:17:44;;;;;;;6.70;4.47;;;21.20;99.90;;;;;;5102356;28;20041;-90
2023/09/18 04:20:14;;;;;;;6.35;4.10;;;21.20;99.90;;;;;;5105025;28;20043;-85
2023/09/18 04:22:49;;;;;;;5.35;4.50;;;21.20;99.90;;;;;;5100573;27;20027;-85
2023/09/18 04:25:19;;;;;;;4.18;3.78;;;21.20;99.90;;;;;;5102298;28;20126;-87
2023/09/18 04:27:45;;;;;;;5.85;3.67;;;21.20;99.90;;;;;;5103894;28;20468;-87
2023/09/18 04:30:11;;;;;;;3.60;3.30;;;21.10;99.90;;;;;;5093779;28;20020;-85
2023/09/18 04:32:40;;;;;;;5.50;3.53;;;21.10;99.90;;;;;;5099302;28;20030;-86
2023/09/18 04:35:09;;;;;;;5.50;4.20;;;21.20;99.90;;;;;;5105341;28;20023;-87
2023/09/18 04:37:40;;;;;;;4.82;3.78;;;21.20;99.90;;;;;;5098287;28;20012;-86
2023/09/18 04:40:12;;;;;;;7.93;4.35;;;21.20;99.90;;;;;;5102196;27;20024;-84
2023/09/18 04:42:42;;;;;;;5.78;4.18;;;21.10;99.90;;;;;;5099691;28;20019;-85
2023/09/18 04:45:08;;;;;;;4.75;3.55;;;21.10;99.90;;;;;;5098313;28;20059;-86
2023/09/18 04:47:35;;;;;;;4.75;3.80;;;21.10;99.90;;;;;;5102486;27;20059;-89
2023/09/18 04:50:05;;;;;;;6.35;4.20;;;21.10;99.90;;;;;;5101949;27;20510;-85
2023/09/18 04:52:31;;;;;;;6.40;3.83;;;21.00;99.90;;;;;;5098005;27;20493;-88
2023/09/18 04:54:59;;;;;;;6.38;3.97;;;21.00;99.90;;;;;;5103747;28;20035;-83
2023/09/18 04:57:25;;;;;;;4.20;3.60;;;21.00;99.90;;;;;;5101951;28;20008;-86
2023/09/18 04:59:55;;;;;;;6.68;3.85;;;21.10;99.90;;;;;;5084348;28;21129;-84
2023/09/18 05:02:25;;;;;;;8.60;4.28;;;21.10;99.90;;;;;;5101730;27;20038;-81
2023/09/18 05:04:56;;;;;;;7.13;4.55;;;21.00;99.90;;;;;;5098689;27;20553;-85
2023/09/18 05:07:24;;;;;;;4.82;3.85;;;21.00;99.90;;;;;;5105349;28;20106;-85
2023/09/18 05:09:50;;;;;;;5.28;4.03;;;21.00;99.90;;;;;;5087349;28;20437;-82
2023/09/18 05:12:15;;;;;;;4.53;4.13;;;21.00;99.90;;;;;;5105101;28;20023;-85
2023/09/18 05:14:41;;;;;;;7.57;4.60;;;21.00;99.90;;;;;;5105097;28;20092;-86
2023/09/18 05:17:12;;;;;;;8.27;4.78;;;20.90;99.90;;;;;;5104792;27;20028;-86
2023/09/18 05:19:37;;;;;;;4.63;4.10;;;20.90;99.90;;;;;;5098286;28;20016;-85
2023/09/18 05:22:03;;;;;;;10.77;4.03;;;20.90;99.90;;;;;;5102786;28;20469;-86
2023/09/18 05:24:29;;;;;;;9.20;4.28;;;20.90;99.90;;;;;;5100079;28;20020;-86
2023/09/18 05:26:54;;;;;;;9.15;4.50;;;20.80;99.90;;;;;;5097455;28;20035;-84
2023/09/18 05:29:20;;;;;;;6.30;4.75;;;20.80;99.90;;;;;;5095539;28;20059;-87
2023/09/18 05:31:46;;;;;;;7.80;4.25;;;20.80;99.90;;;;;;5106926;28;20016;-86
2023/09/18 05:34:14;;;;;;;6.40;4.60;;;20.90;99.90;;;;;;5105075;28;20032;-85
2023/09/18 05:36:40;;;;;;;8.07;4.05;;;20.90;99.90;;;;;;5104773;28;20062;-84
2023/09/18 05:39:09;;;;;;;4.93;3.63;;;20.90;99.90;;;;;;5102380;28;20070;-86
2023/09/18 05:41:35;;;;;;;8.18;4.60;;;20.90;99.90;;;;;;5097782;28;20019;-85
2023/09/18 05:44:03;;;;;;;5.28;4.35;;;20.90;99.90;;;;;;5104525;28;20058;-81
2023/09/18 05:46:29;;;;;;;4.95;3.70;;;20.90;99.90;;;;;;5103185;28;20051;-83
2023/09/18 05:48:58;;;;;;;4.30;3.72;;;20.90;99.90;;;;;;5095642;28;20026;-84
2023/09/18 05:51:23;;;;;;;4.70;4.28;;;21.00;99.90;;;;;;5094939;28;20022;-84
2023/09/18 05:53:49;;;;;;;7.20;3.95;;;21.00;99.90;;;;;;5101719;28;20456;-86
2023/09/18 05:56:17;;;;;;;5.10;3.90;;;21.00;99.90;;;;;;5102308;28;20114;-86
2023/09/18 05:58:42;;;;;;;10.43;4.50;;;21.00;99.90;;;;;;5102894;28;20540;-85
2023/09/18 06:01:08;;;;;;;5.95;4.13;;;21.00;99.90;;;;;;5098811;28;20111;-80
2023/09/18 06:03:35;;;;;;;7.93;4.25;;;21.00;99.90;;;;;;5101394;28;20313;-83
2023/09/18 06:06:02;;;;;;;6.45;4.00;;;21.00;99.90;;;;;;5094919;28;20047;-86
2023/09/18 06:08:30;;;;;;;4.85;4.07;;;21.00;99.90;;;;;;5100805;27;20387;-82
2023/09/18 06:10:56;;;;;;;4.32;3.63;;;21.10;99.90;;;;;;5106218;28;20049;-83
2023/09/18 06:13:22;;;;;;;6.30;3.45;;;21.10;99.90;;;;;;5102111;28;20015;-84
2023/09/18 06:15:48;;;;;;;8.73;3.83;;;21.10;99.90;;;;;;5097403;28;20024;-85
2023/09/18 06:18:14;;;;;;;6.55;4.07;;;21.20;99.90;;;;;;5096306;28;20256;-84
2023/09/18 06:20:54;;;;;;;6.25;3.85;;;21.20;99.90;;;;;;5101321;28;20110;-82
2023/09/18 06:23:20;;;;;;;4.13;3.55;;;21.30;99.90;;;;;;5105159;28;20106;-83
2023/09/18 06:25:47;;;;;;;4.47;3.47;;;21.30;99.90;;;;;;5104530;28;20149;-81
2023/09/18 06:28:13;;;;;;;9.77;3.90;;;21.40;99.90;;;;;;5104224;28;20050;-83
2023/09/18 06:30:39;;;;;;;4.22;3.50;;;21.40;99.90;;;;;;5103153;28;20098;-81
2023/09/18 06:33:04;;;;;;;5.72;4.40;;;21.50;99.90;;;;;;5100974;28;20111;-83
2023/09/18 06:35:33;;;;;;;4.03;3.63;;;21.50;99.90;;;;;;5102157;28;20054;-84
2023/09/18 06:37:59;;;;;;;3.83;3.15;;;21.50;99.90;;;;;;5103396;28;20536;-85
2023/09/18 06:40:25;;;;;;;4.28;3.55;;;21.50;99.90;;;;;;5093139;28;20547;-83
2023/09/18 06:42:52;;;;;;;4.40;3.70;;;21.40;99.90;;;;;;5095056;28;20020;-83
2023/09/18 06:45:18;;;;;;;5.30;3.78;;;21.50;99.90;;;;;;5100724;28;20332;-82
2023/09/18 06:47:43;;;;;;;4.60;3.85;;;21.40;99.90;;;;;;5099065;28;20024;-84
2023/09/18 06:50:09;;;;;;;8.80;5.07;;;21.50;99.90;;;;;;5097163;28;20034;-84
2023/09/18 06:52:38;;;;;;;5.72;3.83;;;21.30;99.90;;;;;;5098817;28;20024;-83
2023/09/18 06:55:05;;;;;;;4.63;3.92;;;21.30;99.90;;;;;;5105404;28;20030;-84
2023/09/18 06:57:30;;;;;;;4.20;3.22;;;21.30;99.90;;;;;;5102816;28;20031;-86
2023/09/18 06:59:56;;;;;;;3.65;3.33;;;21.30;99.90;;;;;;5101043;28;20353;-84
2023/09/18 07:02:22;;;;;;;6.82;3.92;;;21.30;99.90;;;;;;5101842;28;20019;-81
2023/09/18 07:04:47;;;;;;;4.63;3.80;;;21.20;99.90;;;;;;5102329;28;20032;-84
2023/09/18 07:07:16;;;;;;;4.15;3.70;;;21.30;99.90;;;;;;5104785;28;20372;-86
2023/09/18 07:09:42;;;;;;;13.05;4.38;;;21.30;99.90;;;;;;5104601;28;20050;-84
2023/09/18 07:12:11;;;;;;;5.40;3.63;;;21.20;99.90;;;;;;5101646;28;20445;-84
2023/09/18 07:14:37;;;;;;;6.60;4.03;;;21.30;99.90;;;;;;5102301;28;20020;-84
2023/09/18 07:17:04;;;;;;;4.65;3.70;;;21.20;99.90;;;;;;5094472;28;20360;-83
2023/09/18 07:19:29;;;;;;;6.65;4.18;;;21.20;99.90;;;;;;5101715;28;20016;-84
2023/09/18 07:21:55;;;;;;;5.18;3.72;;;21.20;99.90;;;;;;5098882;28;20035;-83
2023/09/18 07:24:21;;;;;;;5.75;4.20;;;21.20;99.90;;;;;;5105403;28;20460;-84
2023/09/18 07:26:48;;;;;;;4.40;4.00;;;21.20;99.90;;;;;;5103393;28;20170;-85
2023/09/18 07:29:15;;;;;;;8.35;5.32;;;21.20;99.90;;;;;;5099107;28;20019;-85
2023/09/18 07:31:44;;;;;;;7.22;4.60;;;21.20;99.90;;;;;;5100318;28;20015;-87
2023/09/18 07:34:10;;;;;;;4.03;3.63;;;21.20;99.90;;;;;;5099858;28;20027;-85
2023/09/18 07:36:36;;;;;;;5.80;4.00;;;21.20;99.90;;;;;;5081557;28;20019;-85
2023/09/18 07:39:04;;;;;;;4.15;3.75;;;21.20;99.90;;;;;;5098117;28;20071;-84
2023/09/18 07:41:30;;;;;;;5.18;3.92;;;21.20;99.90;;;;;;5100942;28;20036;-87
2023/09/18 07:43:57;;;;;;;6.28;4.05;;;21.20;99.90;;;;;;5096047;28;20618;-86
2023/09/18 07:46:22;;;;;;;4.88;3.25;;;21.10;99.90;;;;;;5100375;28;20066;-84
2023/09/18 07:48:48;;;;;;;7.88;3.97;;;21.20;99.90;;;;;;5102136;28;20055;-84
2023/09/18 07:51:15;;;;;;;5.38;4.15;;;21.20;99.90;;;;;;5105381;28;20363;-85
2023/09/18 07:53:42;;;;;;;5.75;3.83;;;21.10;99.90;;;;;;5106583;28;20471;-83
2023/09/18 07:56:08;;;;;;;7.45;4.13;;;21.10;99.90;;;;;;5104469;28;20019;-81
2023/09/18 07:58:34;;;;;;;12.73;4.05;;;21.10;99.90;;;;;;5104290;28;20088;-84
2023/09/18 08:00:59;;;;;;;6.50;4.13;;;21.20;99.90;;;;;;5105563;28;20053;-85
2023/09/18 08:03:26;;;;;;;8.50;4.95;;;21.20;99.90;;;;;;5101246;27;20032;-84
2023/09/18 08:05:52;;;;;;;5.15;3.70;;;21.20;99.90;;;;;;5108666;28;20057;-81
2023/09/18 08:08:23;;;;;;;4.03;3.60;;;21.20;99.90;;;;;;5110817;28;20020;-87
2023/09/18 08:10:49;;;;;;;5.20;3.97;;;21.20;99.90;;;;;;5107937;27;20063;-82
2023/09/18 08:13:15;;;;;;;14.00;4.22;;;21.20;99.90;;;;;;5105050;28;20081;-86
2023/09/18 08:15:41;;;;;;;5.45;4.38;;;21.30;99.90;;;;;;5105506;28;20028;-85
2023/09/18 08:18:06;;;;;;;5.72;3.60;;;21.30;99.90;;;;;;5103939;28;20027;-81
2023/09/18 08:20:33;;;;;;;4.75;3.72;;;21.40;99.90;;;;;;5106431;28;20040;-83
2023/09/18 08:23:01;;;;;;;9.85;3.58;;;21.40;99.90;;;;;;5106437;28;20331;-84
2023/09/18 08:25:27;;;;;;;5.78;3.92;;;21.40;99.90;;;;;;5106773;28;20439;-83
2023/09/18 08:27:53;;;;;;;8.20;3.95;;;21.40;99.90;;;;;;5108546;28;20023;-87
2023/09/18 08:30:20;;;;;;;6.50;3.30;;;21.50;99.90;;;;;;5105024;28;20110;-85
2023/09/18 08:32:47;;;;;;;3.90;3.50;;;21.50;99.90;;;;;;5105618;28;20023;-85
2023/09/18 08:35:12;;;;;;;6.82;4.03;;;21.60;99.90;;;;;;5104859;28;20031;-83
2023/09/18 08:37:40;;;;;;;7.40;3.58;;;21.60;99.90;;;;;;5106226;28;20027;-84
2023/09/18 08:40:09;;;;;;;9.38;4.07;;;21.70;99.90;;;;;;5106531;28;20050;-84
2023/09/18 08:42:39;;;;;;;6.45;3.50;;;21.70;99.90;;;;;;5108153;28;20069;-85
2023/09/18 08:45:09;;;;;;;4.60;3.63;;;21.70;99.90;;;;;;5107076;28;20040;-84
2023/09/18 08:47:36;;;;;;;8.57;3.90;;;21.70;99.90;;;;;;5103880;28;20069;-85
2023/09/18 08:50:03;;;;;;;7.38;3.75;;;21.80;99.90;;;;;;5103636;27;20027;-84
2023/09/18 08:52:29;;;;;;;9.98;3.90;;;21.90;99.90;;;;;;5110202;28;20020;-86
2023/09/18 08:54:56;;;;;;;8.48;3.80;;;21.80;99.90;;;;;;5109029;28;20024;-84
2023/09/18 08:57:22;;;;;;;9.20;3.72;;;22.00;99.90;;;;;;5102872;27;20020;-82
2023/09/18 08:59:52;;;;;;;9.45;3.50;;;22.00;99.90;;;;;;5106502;28;20031;-83
2023/09/18 09:02:17;;;;;;;12.32;4.20;;;22.10;99.90;;;;;;5107370;27;20452;-82
2023/09/18 09:04:43;;;;;;;12.57;3.63;;;22.20;99.90;;;;;;5104362;27;20115;-84
2023/09/18 09:07:09;;;;;;;15.65;3.97;;;22.30;99.90;;;;;;5108203;28;20361;-85
2023/09/18 09:09:35;;;;;;;13.35;3.97;;;22.40;99.90;;;;;;5108030;27;20023;-84
2023/09/18 09:12:01;;;;;;;9.25;3.85;;;22.40;99.90;;;;;;5105382;27;20030;-85
2023/09/18 09:14:29;;;;;;;10.27;4.03;;;22.40;99.90;;;;;;5107312;27;20020;-83
2023/09/18 09:16:57;;;;;;;17.80;5.38;;;22.40;99.90;;;;;;5089420;27;20038;-85
2023/09/18 09:19:31;;;;;;;12.05;4.50;;;22.40;99.90;;;;;;5111194;27;20019;-84
2023/09/18 09:21:58;;;;;;;11.88;4.68;;;22.40;99.90;;;;;;5100115;28;20039;-83
2023/09/18 09:24:44;;;;;;;13.50;3.80;;;22.40;99.90;;;;;;5088076;28;20031;-82
2023/09/18 09:27:10;;;;;;;11.77;3.67;;;22.40;99.90;;;;;;5104862;28;20032;-85
2023/09/18 09:29:36;;;;;;;10.80;4.28;;;22.40;99.90;;;;;;5105498;28;20061;-81
2023/09/18 09:32:14;;;;;;;15.30;4.38;;;22.30;99.90;;;;;;5102235;28;20399;-85
2023/09/18 09:34:41;;;;;;;13.90;4.07;;;22.30;99.90;;;;;;5100018;27;20030;-83
2023/09/18 09:37:08;;;;;;;13.38;4.28;;;22.30;99.90;;;;;;5109146;27;20429;-84
2023/09/18 09:39:34;;;;;;;14.68;4.22;;;22.30;99.90;;;;;;5103256;27;20080;-88
2023/09/18 09:42:03;;;;;;;7.05;3.47;;;22.30;99.90;;;;;;5101286;28;20032;-85
2023/09/18 09:44:32;;;;;;;21.00;4.53;;;22.30;99.90;;;;;;5103015;28;20036;-84
2023/09/18 09:46:59;;;;;;;17.52;4.20;;;22.30;99.90;;;;;;5105301;27;20388;-85
2023/09/18 09:49:27;;;;;;;13.07;3.70;;;22.30;99.90;;;;;;5105680;28;20429;-85
2023/09/18 09:51:54;;;;;;;12.55;4.07;;;22.40;99.90;;;;;;5105032;27;20532;-85
2023/09/18 09:54:36;;;;;;;15.50;3.47;;;22.50;99.90;;;;;;5100527;27;20019;-85
2023/09/18 09:57:03;;;;;;;17.17;3.70;;;22.60;99.90;;;;;;5099862;27;20031;-83
2023/09/18 09:59:29;;;;;;;10.60;3.70;;;22.70;99.90;;;;;;5101603;28;20024;-88
2023/09/18 10:01:58;;;;;;;12.75;3.78;;;22.90;99.90;;;;;;5080763;28;20431;-83
2023/09/18 10:04:26;;;;;;;11.13;3.38;;;23.10;99.90;;;;;;5103221;27;20031;-86
2023/09/18 10:06:56;;;;;;;11.48;3.83;;;23.20;99.90;;;;;;5102828;28;20471;-86
2023/09/18 10:09:23;;;;;;;11.20;2.75;;;23.30;99.90;;;;;;5099100;28;20033;-87
2023/09/18 10:11:55;;;;;;;16.30;3.00;;;23.30;99.90;;;;;;5104097;28;20085;-84
2023/09/18 10:14:31;;;;;;;14.00;3.00;;;23.40;99.90;;;;;;5106583;28;20027;-81
2023/09/18 10:17:01;;;;;;;8.68;3.17;;;23.40;99.90;;;;;;5099360;27;20035;-85
2023/09/18 10:19:37;;;;;;;12.65;2.75;;;23.50;99.90;;;;;;5105276;28;20027;-81
2023/09/18 10:22:13;;;;;;;5.70;2.95;;;23.40;99.90;;;;;;5101173;28;20480;-88
2023/09/18 10:24:41;;;;;;;;;;;23.50;99.90;;;;;;5102966;28;20503;-81
2023/09/18 10:27:09;;;;;;;10.30;2.88;;;23.40;99.90;;;;;;5098371;28;20010;-84
2023/09/18 10:29:36;;;;;;;13.07;3.22;;;23.40;99.90;;;;;;5105617;27;20027;-82
2023/09/18 10:32:09;;;;;;;9.90;3.22;;;23.40;99.90;;;;;;5106432;27;20019;-83
2023/09/18 10:34:36;;;;;;;12.15;3.22;;;23.40;99.90;;;;;;5100517;27;20443;-85
2023/09/18 10:37:07;;;;;;;10.57;3.60;;;23.40;99.90;;;;;;5086497;28;20028;-85
2023/09/18 10:39:39;;;;;;;9.82;3.67;;;23.40;99.90;;;;;;5104511;27;20035;-85
2023/09/18 10:42:07;;;;;;;8.60;3.28;;;23.40;99.90;;;;;;5098426;27;20478;-88
2023/09/18 10:44:34;;;;;;;7.93;2.70;;;23.40;99.90;;;;;;5103742;27;20039;-86
2023/09/18 10:47:02;;;;;;;13.55;4.13;;;23.50;99.90;;;;;;5100694;28;20030;-88
2023/09/18 10:49:28;;;;;;;10.40;3.67;;;23.50;99.90;;;;;;5079064;28;20385;-83
2023/09/18 10:51:55;;;;;;;13.52;3.22;;;23.50;99.90;;;;;;5098322;28;20027;-90
2023/09/18 10:54:23;;;;;;;11.52;3.80;;;23.50;99.90;;;;;;5101714;28;20427;-85
2023/09/18 10:56:49;;;;;;;19.90;3.20;;;23.60;99.90;;;;;;5102536;28;20031;-88
2023/09/18 10:59:16;;;;;;;11.30;3.30;;;23.60;99.90;;;;;;5100702;28;21101;-82
2023/09/18 11:01:42;;;;;;;13.88;3.42;;;23.70;99.90;;;;;;5098114;28;20028;-87
2023/09/18 11:04:10;;;;;;;21.20;3.72;;;23.70;99.90;;;;;;5103208;28;20024;-84
2023/09/18 11:06:53;;;;;;;9.90;3.75;;;23.70;99.90;;;;;;5103085;28;20114;-82
2023/09/18 11:09:21;;;;;;;11.55;3.72;;;23.70;99.90;;;;;;5095831;28;20097;-83
2023/09/18 11:11:52;;;;;;;11.73;3.38;;;23.60;99.90;;;;;;5098690;28;20023;-84
2023/09/18 11:14:17;;;;;;;7.05;3.33;;;23.60;99.90;;;;;;5102443;28;20317;-84
2023/09/18 11:16:44;;;;;;;9.30;3.13;;;23.60;99.90;;;;;;5102652;28;20019;-85
2023/09/18 11:19:11;;;;;;;14.75;3.53;;;23.50;99.90;;;;;;5101418;28;20051;-85
2023/09/18 11:21:38;;;;;;;10.23;2.45;;;23.50;99.90;;;;;;5074704;28;20040;-83
2023/09/18 11:24:06;;;;;;;6.13;3.00;;;23.50;99.90;;;;;;5079748;28;20362;-84
2023/09/18 11:26:33;;;;;;;15.00;3.33;;;23.50;99.90;;;;;;5082290;28;20063;-85
2023/09/18 11:29:05;;;;;;;14.40;3.42;;;23.50;99.90;;;;;;5077605;28;20024;-87
2023/09/18 11:31:53;;;;;;;12.18;3.03;;;23.40;99.90;;;;;;5084127;28;20039;-84
2023/09/18 11:34:31;;;;;;;11.07;2.60;;;23.40;99.90;;;;;;5078520;28;20039;-83
2023/09/18 11:36:58;;;;;;;6.40;2.60;;;23.40;99.90;;;;;;5092918;28;20054;-91
2023/09/18 11:39:40;;;;;;;18.42;3.03;;;23.40;99.90;;;;;;5074571;28;20621;-81
2023/09/18 11:42:11;;;;;;;12.15;2.33;;;23.40;99.90;;;;;;5086551;28;20043;-86
2023/09/18 11:44:41;;;;;;;9.38;2.47;;;23.40;99.90;;;;;;5084250;28;20020;-84
2023/09/18 11:47:29;;;;;;;8.15;2.47;;;23.30;99.90;;;;;;5084615;28;20028;-83
2023/09/18 11:49:58;;;;;;;12.23;2.42;;;23.30;99.90;;;;;;5078904;28;20035;-93
2023/09/18 11:52:26;;;;;;;11.13;2.72;;;23.30;99.90;;;;;;5080232;28;20472;-85
2023/09/18 11:54:54;;;;;;;9.00;2.45;;;23.40;99.90;;;;;;5087069;28;20028;-83
2023/09/18 11:57:20;;;;;;;18.42;2.38;;;23.40;99.90;;;;;;5086851;28;20024;-84
2023/09/18 11:59:46;;;;;;;11.70;2.67;;;23.40;99.90;;;;;;5086127;28;20022;-82
2023/09/18 12:02:36;;;;;;;24.55;2.95;;;23.40;99.90;;;;;;5081959;28;20032;-86
2023/09/18 12:05:20;;;;;;;12.70;2.85;;;23.40;99.90;;;;;;5080187;28;20168;-88
2023/09/18 12:07:47;;;;;;;12.35;2.22;;;23.40;99.90;;;;;;5081235;28;20107;-84
2023/09/18 12:10:16;;;;;;;10.40;2.40;;;23.40;99.90;;;;;;5082203;28;20020;-85
2023/09/18 12:12:44;;;;;;;14.93;2.50;;;23.50;99.90;;;;;;5082185;28;20020;-83
2023/09/18 12:15:16;;;;;;;6.40;1.92;;;23.50;99.90;;;;;;5088750;28;20501;-86
2023/09/18 12:17:45;;;;;;;13.07;2.75;;;23.40;99.90;;;;;;5088799;28;20431;-84
2023/09/18 12:20:18;;;;;;;10.02;2.60;;;23.40;99.90;;;;;;5085876;28;20075;-84
2023/09/18 12:22:48;;;;;;;10.55;2.75;;;23.50;99.90;;;;;;5104148;28;20093;-80
2023/09/18 12:25:15;;;;;;;10.63;2.58;;;23.50;99.90;;;;;;5108358;28;20047;-88
2023/09/18 12:27:44;;;;;;;13.15;2.63;;;23.50;99.90;;;;;;5107986;28;20023;-85
2023/09/18 12:30:11;;;;;;;13.85;2.50;;;23.60;99.90;;;;;;5107489;27;20020;-85
2023/09/18 12:32:40;;;;;;;6.00;1.80;;;23.50;99.90;;;;;;5107473;28;20024;-85
2023/09/18 12:35:07;;;;;;;7.78;1.92;;;23.40;99.90;;;;;;5107353;28;20035;-87
2023/09/18 12:37:40;;;;;;;9.98;2.28;;;23.40;99.90;;;;;;5105622;27;20671;-86
2023/09/18 12:40:10;;;;;;;13.82;1.85;;;23.50;99.90;;;;;;5106867;28;20050;-84
2023/09/18 12:42:40;;;;;;;14.52;2.45;;;23.40;99.90;;;;;;5088877;28;20026;-85
2023/09/18 12:45:07;;;;;;;12.32;2.60;;;23.40;99.90;;;;;;5108021;28;20040;-84
2023/09/18 12:47:33;;;;;;;11.02;2.78;;;23.40;99.90;;;;;;5106367;28;20028;-87